Ana Sayfa
METAR-TAF:

METAR-TAF

Havaalanları :

Heathrow Havalimanı

Londra-Heathrow, İngiltere

Enlem: 51-29N, Boylam: 000-27W, yükseklik: 24 m

Güncel hava durumu gözlemi

Rapor saat 00:20 UTC de 17 dakika önce yapıldı.
Rüzgar güneydan 4 kt
Sıcaklık 16°C
Nem 68%
Basınç 1026 hPa
Görüş mesafesi 10 km veya daha fazla

METAR: EGLL 250020Z AUTO 18004KT 9999 NCD 16/10 Q1026 NOSIG

Saat: 01:37 (00:37 UTC)

Tahmin

Rapor saat 22:51 UTC de 1 saat ve 46 dakika önce yapıldı.
Ayın 25'si saat 00 UTC'den ayın 26'si saat 06 UTC'ye kadar geçerli Tahmin
Rüzgar güneybatıdan 4 kt
Görüş mesafesi 10 km veya daha fazla
1500 m altında bulut yok ve kümülonimbus yok
Dönüşüyor
ayın 25'si saat 17 UTC'den ayın 25'si saat 20 UTC'ye kadar
Rüzgar kuzey/kuzeydoğudan 10 kt

TAF: EGLL 242251Z 2500/2606 23004KT CAVOK BECMG 2517/2520 03010KT

4.000'den fazla havaalanı için hava durumu gözlemleri ve tahminleri (METAR ve TAF raporları).

Kullanılabilir istasyonlar harita üzerinde sarı ve kırmızı noktalarla gösterilir.

İstasyonun adını görmek için fareyi noktanın üzerinde gezdirin.

Sonrasında hava gözlem ve tahminlerini görmek için tıklayın.

Haritayı değiştirmek için: yaklaştırmak için siyah artı işaretli yeşil düğmeye ve uzaklaştırmak için de eksi işaretli düğmeye hızla tıklayın; bitişik haritalar için yeşil okları kullanın.


METAR-TAF: